sensor_id;sensor_type;location;lat;lon;timestamp;pressure;altitude;pressure_sealevel;temperature
15144;BMP180;7672;50.834;6.286;2022-08-18T00:00:04;99455.16;;;22.44
15144;BMP180;7672;50.834;6.286;2022-08-18T00:02:39;99460.31;;;22.44
15144;BMP180;7672;50.834;6.286;2022-08-18T00:05:15;99467.25;;;22.42
15144;BMP180;7672;50.834;6.286;2022-08-18T00:07:43;99471.50;;;22.43
15144;BMP180;7672;50.834;6.286;2022-08-18T00:10:12;99477.72;;;22.39
15144;BMP180;7672;50.834;6.286;2022-08-18T00:12:44;99482.97;;;22.36
15144;BMP180;7672;50.834;6.286;2022-08-18T00:15:15;99481.59;;;22.29
15144;BMP180;7672;50.834;6.286;2022-08-18T00:17:42;99476.78;;;22.22
15144;BMP180;7672;50.834;6.286;2022-08-18T00:20:20;99469.31;;;22.16
15144;BMP180;7672;50.834;6.286;2022-08-18T00:22:48;99472.13;;;22.11
15144;BMP180;7672;50.834;6.286;2022-08-18T00:25:18;99466.34;;;22.06
15144;BMP180;7672;50.834;6.286;2022-08-18T00:27:45;99463.00;;;22.04
15144;BMP180;7672;50.834;6.286;2022-08-18T00:30:18;99463.16;;;22.01
15144;BMP180;7672;50.834;6.286;2022-08-18T00:32:56;99457.38;;;21.96
15144;BMP180;7672;50.834;6.286;2022-08-18T00:35:31;99450.72;;;21.92
15144;BMP180;7672;50.834;6.286;2022-08-18T00:38:02;99452.66;;;21.87
15144;BMP180;7672;50.834;6.286;2022-08-18T00:40:36;99453.75;;;21.82
15144;BMP180;7672;50.834;6.286;2022-08-18T00:43:10;99453.06;;;21.78
15144;BMP180;7672;50.834;6.286;2022-08-18T00:45:42;99447.22;;;21.75
15144;BMP180;7672;50.834;6.286;2022-08-18T00:48:12;99449.97;;;21.71
15144;BMP180;7672;50.834;6.286;2022-08-18T00:50:49;99444.97;;;21.68
15144;BMP180;7672;50.834;6.286;2022-08-18T00:53:24;99447.69;;;21.65
15144;BMP180;7672;50.834;6.286;2022-08-18T00:56:02;99447.78;;;21.63
15144;BMP180;7672;50.834;6.286;2022-08-18T00:58:38;99444.41;;;21.61
15144;BMP180;7672;50.834;6.286;2022-08-18T01:01:10;99444.41;;;21.61
15144;BMP180;7672;50.834;6.286;2022-08-18T01:03:41;99436.78;;;21.60
15144;BMP180;7672;50.834;6.286;2022-08-18T01:06:21;99442.03;;;21.57
15144;BMP180;7672;50.834;6.286;2022-08-18T01:08:49;99435.28;;;21.54
15144;BMP180;7672;50.834;6.286;2022-08-18T01:11:16;99442.03;;;21.57
15144;BMP180;7672;50.834;6.286;2022-08-18T01:13:44;99442.09;;;21.55
15144;BMP180;7672;50.834;6.286;2022-08-18T01:16:11;99444.59;;;21.57
15144;BMP180;7672;50.834;6.286;2022-08-18T01:18:56;99442.97;;;21.56
15144;BMP180;7672;50.834;6.286;2022-08-18T01:21:49;99449.75;;;21.57
15144;BMP180;7672;50.834;6.286;2022-08-18T01:24:30;99438.63;;;21.56
15144;BMP180;7672;50.834;6.286;2022-08-18T01:27:18;99445.66;;;21.53
15144;BMP180;7672;50.834;6.286;2022-08-18T01:29:48;99448.09;;;21.56
15144;BMP180;7672;50.834;6.286;2022-08-18T01:32:20;99445.47;;;21.57
15144;BMP180;7672;50.834;6.286;2022-08-18T01:34:50;99454.88;;;21.57
15144;BMP180;7672;50.834;6.286;2022-08-18T01:37:23;99455.81;;;21.56
15144;BMP180;7672;50.834;6.286;2022-08-18T01:39:50;99453.19;;;21.57
15144;BMP180;7672;50.834;6.286;2022-08-18T01:42:38;99462.59;;;21.57
15144;BMP180;7672;50.834;6.286;2022-08-18T01:45:06;99462.69;;;21.55
15144;BMP180;7672;50.834;6.286;2022-08-18T01:47:35;99464.44;;;21.55
15144;BMP180;7672;50.834;6.286;2022-08-18T01:50:14;99476.50;;;21.53
15144;BMP180;7672;50.834;6.286;2022-08-18T01:52:42;99473.19;;;21.51
15144;BMP180;7672;50.834;6.286;2022-08-18T01:55:09;99474.00;;;21.51
15144;BMP180;7672;50.834;6.286;2022-08-18T01:57:38;99480.97;;;21.48
15144;BMP180;7672;50.834;6.286;2022-08-18T02:00:15;99475.91;;;21.46
15144;BMP180;7672;50.834;6.286;2022-08-18T02:02:42;99475.97;;;21.45
15144;BMP180;7672;50.834;6.286;2022-08-18T02:05:16;99481.03;;;21.46
15144;BMP180;7672;50.834;6.286;2022-08-18T02:07:43;99478.69;;;21.42
15144;BMP180;7672;50.834;6.286;2022-08-18T02:10:12;99478.72;;;21.40
15144;BMP180;7672;50.834;6.286;2022-08-18T02:12:42;99477.06;;;21.39
15144;BMP180;7672;50.834;6.286;2022-08-18T02:15:11;99467.88;;;21.34
15144;BMP180;7672;50.834;6.286;2022-08-18T02:17:41;99475.47;;;21.37
15144;BMP180;7672;50.834;6.286;2022-08-18T02:20:13;99470.34;;;21.37
15144;BMP180;7672;50.834;6.286;2022-08-18T02:22:41;99472.13;;;21.35
15144;BMP180;7672;50.834;6.286;2022-08-18T02:25:10;99468.66;;;21.36
15144;BMP180;7672;50.834;6.286;2022-08-18T02:27:37;99464.47;;;21.33
15144;BMP180;7672;50.834;6.286;2022-08-18T02:30:09;99451.63;;;21.33
15144;BMP180;7672;50.834;6.286;2022-08-18T02:32:37;99441.41;;;21.32
15144;BMP180;7672;50.834;6.286;2022-08-18T02:35:06;99440.53;;;21.33
15144;BMP180;7672;50.834;6.286;2022-08-18T02:37:39;99434.59;;;21.31
15144;BMP180;7672;50.834;6.286;2022-08-18T02:40:09;99441.53;;;21.29
15144;BMP180;7672;50.834;6.286;2022-08-18T02:42:42;99443.09;;;21.33
15144;BMP180;7672;50.834;6.286;2022-08-18T02:45:10;99439.59;;;21.34
15144;BMP180;7672;50.834;6.286;2022-08-18T02:47:39;99435.38;;;21.33
15144;BMP180;7672;50.834;6.286;2022-08-18T02:50:09;99437.16;;;21.31
15144;BMP180;7672;50.834;6.286;2022-08-18T02:52:37;99436.28;;;21.32
15144;BMP180;7672;50.834;6.286;2022-08-18T02:55:06;99427.72;;;21.31
15144;BMP180;7672;50.834;6.286;2022-08-18T02:57:33;99422.56;;;21.31
15144;BMP180;7672;50.834;6.286;2022-08-18T03:00:01;99419.03;;;21.34
15144;BMP180;7672;50.834;6.286;2022-08-18T03:02:27;99422.53;;;21.33
15144;BMP180;7672;50.834;6.286;2022-08-18T03:04:54;99422.63;;;21.30
15144;BMP180;7672;50.834;6.286;2022-08-18T03:07:21;99434.59;;;21.31
15144;BMP180;7672;50.834;6.286;2022-08-18T03:09:48;99435.50;;;21.30
15144;BMP180;7672;50.834;6.286;2022-08-18T03:12:15;99434.59;;;21.31
15144;BMP180;7672;50.834;6.286;2022-08-18T03:14:42;99434.59;;;21.31
15144;BMP180;7672;50.834;6.286;2022-08-18T03:17:09;99428.06;;;21.24
15144;BMP180;7672;50.834;6.286;2022-08-18T03:19:36;99418.53;;;21.26
15144;BMP180;7672;50.834;6.286;2022-08-18T03:22:07;99421.19;;;21.24
15144;BMP180;7672;50.834;6.286;2022-08-18T03:24:55;99421.50;;;21.17
15144;BMP180;7672;50.834;6.286;2022-08-18T03:27:22;99423.03;;;21.21
15144;BMP180;7672;50.834;6.286;2022-08-18T03:29:49;99428.31;;;21.18
15144;BMP180;7672;50.834;6.286;2022-08-18T03:32:17;99424.97;;;21.16
15144;BMP180;7672;50.834;6.286;2022-08-18T03:34:44;99421.50;;;21.17
15144;BMP180;7672;50.834;6.286;2022-08-18T03:37:11;99423.19;;;21.18
15144;BMP180;7672;50.834;6.286;2022-08-18T03:39:39;99414.75;;;21.14
15144;BMP180;7672;50.834;6.286;2022-08-18T03:42:06;99407.94;;;21.13
15144;BMP180;7672;50.834;6.286;2022-08-18T03:44:35;99411.47;;;21.11
15144;BMP180;7672;50.834;6.286;2022-08-18T03:47:09;99412.44;;;21.09
15144;BMP180;7672;50.834;6.286;2022-08-18T03:49:37;99414.25;;;21.07
15144;BMP180;7672;50.834;6.286;2022-08-18T03:52:08;99418.44;;;21.09
15144;BMP180;7672;50.834;6.286;2022-08-18T03:54:36;99404.94;;;21.04
15144;BMP180;7672;50.834;6.286;2022-08-18T03:57:08;99413.41;;;21.06
15144;BMP180;7672;50.834;6.286;2022-08-18T03:59:35;99409.28;;;21.02
15144;BMP180;7672;50.834;6.286;2022-08-18T04:02:04;99419.56;;;21.02
15144;BMP180;7672;50.834;6.286;2022-08-18T04:04:31;99416.28;;;20.99
15144;BMP180;7672;50.834;6.286;2022-08-18T04:07:04;99413.78;;;20.97
15144;BMP180;7672;50.834;6.286;2022-08-18T04:09:34;99422.41;;;20.96
15144;BMP180;7672;50.834;6.286;2022-08-18T04:12:13;99424.13;;;20.96
15144;BMP180;7672;50.834;6.286;2022-08-18T04:14:47;99427.88;;;20.89
15144;BMP180;7672;50.834;6.286;2022-08-18T04:17:19;99443.22;;;20.90
15144;BMP180;7672;50.834;6.286;2022-08-18T04:19:53;99434.78;;;20.87
15144;BMP180;7672;50.834;6.286;2022-08-18T04:22:22;99439.88;;;20.88
15144;BMP180;7672;50.834;6.286;2022-08-18T04:24:49;99454.31;;;20.91
15144;BMP180;7672;50.834;6.286;2022-08-18T04:27:19;99445.66;;;20.93
15144;BMP180;7672;50.834;6.286;2022-08-18T04:29:47;99448.13;;;20.96
15144;BMP180;7672;50.834;6.286;2022-08-18T04:32:15;99458.19;;;21.01
15144;BMP180;7672;50.834;6.286;2022-08-18T04:34:42;99459.72;;;21.05
15144;BMP180;7672;50.834;6.286;2022-08-18T04:37:09;99460.38;;;21.10
15144;BMP180;7672;50.834;6.286;2022-08-18T04:39:36;99457.63;;;21.14
15144;BMP180;7672;50.834;6.286;2022-08-18T04:42:04;99467.63;;;21.20
15144;BMP180;7672;50.834;6.286;2022-08-18T04:44:32;99465.63;;;21.26
15144;BMP180;7672;50.834;6.286;2022-08-18T04:47:00;99466.28;;;21.31
15144;BMP180;7672;50.834;6.286;2022-08-18T04:49:27;99462.69;;;21.35
15144;BMP180;7672;50.834;6.286;2022-08-18T04:51:56;99470.97;;;21.42
15144;BMP180;7672;50.834;6.286;2022-08-18T04:55:02;99473.41;;;21.45
15144;BMP180;7672;50.834;6.286;2022-08-18T04:57:29;99476.63;;;21.50
15144;BMP180;7672;50.834;6.286;2022-08-18T05:00:01;99467.88;;;21.54
15144;BMP180;7672;50.834;6.286;2022-08-18T05:02:30;99473.59;;;21.60
15144;BMP180;7672;50.834;6.286;2022-08-18T05:04:59;99470.00;;;21.64
15144;BMP180;7672;50.834;6.286;2022-08-18T05:07:28;99469.81;;;21.69
15144;BMP180;7672;50.834;6.286;2022-08-18T05:09:56;99477.38;;;21.72
15144;BMP180;7672;50.834;6.286;2022-08-18T05:12:23;99476.41;;;21.74
15144;BMP180;7672;50.834;6.286;2022-08-18T05:14:53;99484.75;;;21.79
15144;BMP180;7672;50.834;6.286;2022-08-18T05:17:22;99487.19;;;21.82
15144;BMP180;7672;50.834;6.286;2022-08-18T05:19:58;99492.06;;;21.88
15144;BMP180;7672;50.834;6.286;2022-08-18T05:22:26;99496.09;;;21.93
15144;BMP180;7672;50.834;6.286;2022-08-18T05:24:58;99489.09;;;21.97
15144;BMP180;7672;50.834;6.286;2022-08-18T05:27:31;99494.94;;;22.00
15144;BMP180;7672;50.834;6.286;2022-08-18T05:29:58;99499.75;;;22.08
15144;BMP180;7672;50.834;6.286;2022-08-18T05:32:25;99499.50;;;22.12
15144;BMP180;7672;50.834;6.286;2022-08-18T05:35:22;99487.44;;;22.14
15144;BMP180;7672;50.834;6.286;2022-08-18T05:40:43;99490.63;;;22.19
15144;BMP180;7672;50.834;6.286;2022-08-18T05:43:13;99499.78;;;22.25
15144;BMP180;7672;50.834;6.286;2022-08-18T05:45:41;99507.34;;;22.29
15144;BMP180;7672;50.834;6.286;2022-08-18T05:48:09;99514.84;;;22.34
15144;BMP180;7672;50.834;6.286;2022-08-18T05:50:36;99506.94;;;22.38
15144;BMP180;7672;50.834;6.286;2022-08-18T05:53:10;99504.28;;;22.39
15144;BMP180;7672;50.834;6.286;2022-08-18T05:55:58;99515.19;;;22.44
15144;BMP180;7672;50.834;6.286;2022-08-18T05:58:52;99515.13;;;22.46
15144;BMP180;7672;50.834;6.286;2022-08-18T06:01:36;99511.56;;;22.48
15144;BMP180;7672;50.834;6.286;2022-08-18T06:04:25;99518.31;;;22.51
15144;BMP180;7672;50.834;6.286;2022-08-18T06:06:55;99513.03;;;22.54
15144;BMP180;7672;50.834;6.286;2022-08-18T06:09:35;99519.56;;;22.61
15144;BMP180;7672;50.834;6.286;2022-08-18T06:14:45;99528.75;;;22.66
15144;BMP180;7672;50.834;6.286;2022-08-18T06:17:40;99531.25;;;22.68
15144;BMP180;7672;50.834;6.286;2022-08-18T06:38:42;99544.19;;;22.85
15144;BMP180;7672;50.834;6.286;2022-08-18T06:41:19;99555.09;;;22.90
15144;BMP180;7672;50.834;6.286;2022-08-18T06:44:18;99555.84;;;22.92
15144;BMP180;7672;50.834;6.286;2022-08-18T06:47:17;99550.63;;;22.93
15144;BMP180;7672;50.834;6.286;2022-08-18T06:52:32;99554.63;;;23.00
15144;BMP180;7672;50.834;6.286;2022-08-18T06:55:16;99539.97;;;23.01
15144;BMP180;7672;50.834;6.286;2022-08-18T06:57:56;99553.66;;;23.02
15144;BMP180;7672;50.834;6.286;2022-08-18T07:00:29;99552.56;;;23.06
15144;BMP180;7672;50.834;6.286;2022-08-18T07:03:16;99555.94;;;23.08
15144;BMP180;7672;50.834;6.286;2022-08-18T07:06:04;99553.28;;;23.10
15144;BMP180;7672;50.834;6.286;2022-08-18T07:08:41;99536.91;;;23.11
15144;BMP180;7672;50.834;6.286;2022-08-18T07:13:47;99543.34;;;23.19
15144;BMP180;7672;50.834;6.286;2022-08-18T07:16:35;99551.00;;;23.21
15144;BMP180;7672;50.834;6.286;2022-08-18T07:19:28;99555.16;;;23.23
15144;BMP180;7672;50.834;6.286;2022-08-18T07:22:09;99552.44;;;23.26
15144;BMP180;7672;50.834;6.286;2022-08-18T07:24:46;99556.69;;;23.27
15144;BMP180;7672;50.834;6.286;2022-08-18T07:27:53;99553.97;;;23.30
15144;BMP180;7672;50.834;6.286;2022-08-18T07:30:33;99561.63;;;23.32
15144;BMP180;7672;50.834;6.286;2022-08-18T07:33:17;99557.28;;;23.32
15144;BMP180;7672;50.834;6.286;2022-08-18T07:35:50;99550.31;;;23.34
15144;BMP180;7672;50.834;6.286;2022-08-18T07:38:59;99543.28;;;23.38
15144;BMP180;7672;50.834;6.286;2022-08-18T07:41:32;99548.19;;;23.42
15144;BMP180;7672;50.834;6.286;2022-08-18T07:44:20;99541.06;;;23.47
15144;BMP180;7672;50.834;6.286;2022-08-18T07:47:05;99543.34;;;23.53
15144;BMP180;7672;50.834;6.286;2022-08-18T07:49:38;99541.28;;;23.60
15144;BMP180;7672;50.834;6.286;2022-08-18T07:52:35;99537.53;;;23.65
15144;BMP180;7672;50.834;6.286;2022-08-18T07:55:32;99555.34;;;23.71
15144;BMP180;7672;50.834;6.286;2022-08-18T08:01:22;99561.69;;;23.81
15144;BMP180;7672;50.834;6.286;2022-08-18T08:07:28;99571.63;;;23.88
15144;BMP180;7672;50.834;6.286;2022-08-18T08:10:35;99559.41;;;23.92
15144;BMP180;7672;50.834;6.286;2022-08-18T08:16:49;99568.41;;;24.00
15144;BMP180;7672;50.834;6.286;2022-08-18T08:19:34;99564.69;;;24.06
15144;BMP180;7672;50.834;6.286;2022-08-18T08:22:29;99571.19;;;24.13
15144;BMP180;7672;50.834;6.286;2022-08-18T08:25:23;99566.78;;;24.15
15144;BMP180;7672;50.834;6.286;2022-08-18T08:31:45;99576.69;;;24.22
15144;BMP180;7672;50.834;6.286;2022-08-18T08:34:34;99584.22;;;24.27
15144;BMP180;7672;50.834;6.286;2022-08-18T08:37:12;99590.88;;;24.30
15144;BMP180;7672;50.834;6.286;2022-08-18T08:39:50;99598.31;;;24.36
15144;BMP180;7672;50.834;6.286;2022-08-18T08:42:42;99595.72;;;24.36
15144;BMP180;7672;50.834;6.286;2022-08-18T08:45:25;99588.44;;;24.44
15144;BMP180;7672;50.834;6.286;2022-08-18T08:48:19;99591.78;;;24.46
15144;BMP180;7672;50.834;6.286;2022-08-18T08:51:00;99590.53;;;24.53
15144;BMP180;7672;50.834;6.286;2022-08-18T08:53:36;99586.84;;;24.57
15144;BMP180;7672;50.834;6.286;2022-08-18T08:56:14;99581.34;;;24.63
15144;BMP180;7672;50.834;6.286;2022-08-18T08:58:59;99570.03;;;24.66
15144;BMP180;7672;50.834;6.286;2022-08-18T09:05:04;99574.59;;;24.76
15144;BMP180;7672;50.834;6.286;2022-08-18T09:22:52;99573.84;;;25.05
15144;BMP180;7672;50.834;6.286;2022-08-18T09:30:51;99553.06;;;25.36
15144;BMP180;7672;50.834;6.286;2022-08-18T09:39:35;99556.38;;;25.67
15144;BMP180;7672;50.834;6.286;2022-08-18T09:42:53;99558.28;;;25.79
15144;BMP180;7672;50.834;6.286;2022-08-18T09:48:20;99573.91;;;26.05
15144;BMP180;7672;50.834;6.286;2022-08-18T09:51:15;99573.09;;;26.18
15144;BMP180;7672;50.834;6.286;2022-08-18T09:56:54;99580.44;;;26.40
15144;BMP180;7672;50.834;6.286;2022-08-18T10:07:50;99566.88;;;26.89
15144;BMP180;7672;50.834;6.286;2022-08-18T10:10:43;99569.16;;;27.07
15144;BMP180;7672;50.834;6.286;2022-08-18T10:17:15;99563.75;;;27.49
15144;BMP180;7672;50.834;6.286;2022-08-18T10:22:54;99568.69;;;27.91
15144;BMP180;7672;50.834;6.286;2022-08-18T10:25:36;99563.09;;;28.09
15144;BMP180;7672;50.834;6.286;2022-08-18T10:28:08;99561.00;;;28.26
15144;BMP180;7672;50.834;6.286;2022-08-18T10:34:08;99554.69;;;28.54
15144;BMP180;7672;50.834;6.286;2022-08-18T10:36:49;99547.38;;;28.71
15144;BMP180;7672;50.834;6.286;2022-08-18T10:39:45;99540.25;;;28.85
15144;BMP180;7672;50.834;6.286;2022-08-18T10:43:19;99537.66;;;29.09
15144;BMP180;7672;50.834;6.286;2022-08-18T10:46:48;99540.44;;;29.29
15144;BMP180;7672;50.834;6.286;2022-08-18T10:49:25;99522.75;;;29.45
15144;BMP180;7672;50.834;6.286;2022-08-18T10:56:17;99525.00;;;29.60
15144;BMP180;7672;50.834;6.286;2022-08-18T10:59:05;99528.13;;;29.76
15144;BMP180;7672;50.834;6.286;2022-08-18T11:04:32;99523.91;;;29.97
15144;BMP180;7672;50.834;6.286;2022-08-18T11:07:24;99518.22;;;30.03
15144;BMP180;7672;50.834;6.286;2022-08-18T11:10:32;99518.94;;;30.05
15144;BMP180;7672;50.834;6.286;2022-08-18T11:19:52;99522.72;;;30.12
15144;BMP180;7672;50.834;6.286;2022-08-18T11:22:31;99512.41;;;30.21
15144;BMP180;7672;50.834;6.286;2022-08-18T11:25:17;99504.47;;;30.34
15144;BMP180;7672;50.834;6.286;2022-08-18T11:27:49;99504.44;;;30.56
15144;BMP180;7672;50.834;6.286;2022-08-18T11:30:19;99501.13;;;30.85
15144;BMP180;7672;50.834;6.286;2022-08-18T11:33:00;99500.44;;;31.14
15144;BMP180;7672;50.834;6.286;2022-08-18T11:35:45;99491.16;;;31.41
15144;BMP180;7672;50.834;6.286;2022-08-18T11:38:15;99492.53;;;31.66
15144;BMP180;7672;50.834;6.286;2022-08-18T11:40:53;99508.75;;;31.90
15144;BMP180;7672;50.834;6.286;2022-08-18T11:43:39;99513.00;;;32.11
15144;BMP180;7672;50.834;6.286;2022-08-18T11:46:27;99496.81;;;32.26
15144;BMP180;7672;50.834;6.286;2022-08-18T11:49:00;99500.41;;;32.35
15144;BMP180;7672;50.834;6.286;2022-08-18T11:51:31;99510.19;;;32.42
15144;BMP180;7672;50.834;6.286;2022-08-18T11:56:39;99502.97;;;32.55
15144;BMP180;7672;50.834;6.286;2022-08-18T12:02:20;99500.38;;;32.83
15144;BMP180;7672;50.834;6.286;2022-08-18T12:04:58;99490.59;;;32.95
15144;BMP180;7672;50.834;6.286;2022-08-18T12:07:42;99500.09;;;33.05
15144;BMP180;7672;50.834;6.286;2022-08-18T12:10:27;99513.91;;;33.07
15144;BMP180;7672;50.834;6.286;2022-08-18T12:12:56;99518.28;;;33.07
15144;BMP180;7672;50.834;6.286;2022-08-18T12:15:33;99519.53;;;33.03
15144;BMP180;7672;50.834;6.286;2022-08-18T12:18:16;99522.00;;;32.95
15144;BMP180;7672;50.834;6.286;2022-08-18T12:20:56;99540.19;;;32.87
15144;BMP180;7672;50.834;6.286;2022-08-18T12:23:24;99547.88;;;32.79
15144;BMP180;7672;50.834;6.286;2022-08-18T12:25:51;99561.66;;;32.71
15144;BMP180;7672;50.834;6.286;2022-08-18T12:28:19;99565.78;;;32.64
15144;BMP180;7672;50.834;6.286;2022-08-18T12:30:48;99577.84;;;32.56
15144;BMP180;7672;50.834;6.286;2022-08-18T12:33:23;99597.94;;;32.46
15144;BMP180;7672;50.834;6.286;2022-08-18T12:35:51;99589.91;;;32.38
15144;BMP180;7672;50.834;6.286;2022-08-18T12:38:20;99577.75;;;32.28
15144;BMP180;7672;50.834;6.286;2022-08-18T12:40:49;99564.25;;;32.23
15144;BMP180;7672;50.834;6.286;2022-08-18T12:43:17;99564.66;;;32.18
15144;BMP180;7672;50.834;6.286;2022-08-18T12:45:46;99560.50;;;32.16
15144;BMP180;7672;50.834;6.286;2022-08-18T12:48:13;99556.22;;;32.15
15144;BMP180;7672;50.834;6.286;2022-08-18T12:50:41;99550.16;;;32.14
15144;BMP180;7672;50.834;6.286;2022-08-18T12:53:24;99533.28;;;32.18
15144;BMP180;7672;50.834;6.286;2022-08-18T12:56:16;99516.06;;;32.25
15144;BMP180;7672;50.834;6.286;2022-08-18T12:58:46;99496.38;;;32.31
15144;BMP180;7672;50.834;6.286;2022-08-18T13:01:22;99499.72;;;32.42
15144;BMP180;7672;50.834;6.286;2022-08-18T13:03:52;99492.50;;;32.55
15144;BMP180;7672;50.834;6.286;2022-08-18T13:06:59;99486.88;;;32.69
15144;BMP180;7672;50.834;6.286;2022-08-18T13:09:36;99476.00;;;32.83
15144;BMP180;7672;50.834;6.286;2022-08-18T13:12:20;99476.53;;;32.96
15144;BMP180;7672;50.834;6.286;2022-08-18T13:14:50;99475.72;;;33.05
15144;BMP180;7672;50.834;6.286;2022-08-18T13:17:23;99475.72;;;33.05
15144;BMP180;7672;50.834;6.286;2022-08-18T13:20:12;99479.44;;;33.02
15144;BMP180;7672;50.834;6.286;2022-08-18T13:22:40;99468.53;;;32.97
15144;BMP180;7672;50.834;6.286;2022-08-18T13:25:12;99472.25;;;33.04
15144;BMP180;7672;50.834;6.286;2022-08-18T13:27:59;99471.31;;;33.15
15144;BMP180;7672;50.834;6.286;2022-08-18T13:30:28;99453.50;;;33.18
15144;BMP180;7672;50.834;6.286;2022-08-18T13:33:00;99468.97;;;33.21
15144;BMP180;7672;50.834;6.286;2022-08-18T13:35:32;99467.44;;;33.19
15144;BMP180;7672;50.834;6.286;2022-08-18T13:38:12;99475.44;;;33.17
15144;BMP180;7672;50.834;6.286;2022-08-18T13:40:53;99481.78;;;33.15
15144;BMP180;7672;50.834;6.286;2022-08-18T13:43:29;99474.47;;;33.09
15144;BMP180;7672;50.834;6.286;2022-08-18T13:45:57;99471.84;;;32.99
15144;BMP180;7672;50.834;6.286;2022-08-18T13:48:26;99468.81;;;32.85
15144;BMP180;7672;50.834;6.286;2022-08-18T13:50:58;99479.97;;;32.77
15144;BMP180;7672;50.834;6.286;2022-08-18T13:53:29;99487.81;;;32.68
15144;BMP180;7672;50.834;6.286;2022-08-18T13:55:57;99482.47;;;32.60
15144;BMP180;7672;50.834;6.286;2022-08-18T13:58:27;99480.50;;;32.53
15144;BMP180;7672;50.834;6.286;2022-08-18T14:00:58;99480.06;;;32.48
15144;BMP180;7672;50.834;6.286;2022-08-18T14:03:46;99485.25;;;32.38
15144;BMP180;7672;50.834;6.286;2022-08-18T14:06:16;99487.72;;;32.30
15144;BMP180;7672;50.834;6.286;2022-08-18T14:08:49;99487.44;;;32.24
15144;BMP180;7672;50.834;6.286;2022-08-18T14:11:16;99486.06;;;32.20
15144;BMP180;7672;50.834;6.286;2022-08-18T14:13:44;99486.06;;;32.20
15144;BMP180;7672;50.834;6.286;2022-08-18T14:16:14;99480.69;;;32.21
15144;BMP180;7672;50.834;6.286;2022-08-18T14:18:47;99481.69;;;32.30
15144;BMP180;7672;50.834;6.286;2022-08-18T14:21:41;99477.69;;;32.35
15144;BMP180;7672;50.834;6.286;2022-08-18T14:24:29;99476.16;;;32.42
15144;BMP180;7672;50.834;6.286;2022-08-18T14:27:17;99466.59;;;32.52
15144;BMP180;7672;50.834;6.286;2022-08-18T14:29:44;99456.00;;;32.63
15144;BMP180;7672;50.834;6.286;2022-08-18T14:32:20;99467.31;;;32.73
15144;BMP180;7672;50.834;6.286;2022-08-18T14:35:00;99468.69;;;32.77
15144;BMP180;7672;50.834;6.286;2022-08-18T14:37:47;99472.66;;;32.81
15144;BMP180;7672;50.834;6.286;2022-08-18T14:40:16;99470.31;;;32.87
15144;BMP180;7672;50.834;6.286;2022-08-18T14:42:46;99462.19;;;33.00
15144;BMP180;7672;50.834;6.286;2022-08-18T14:45:23;99452.56;;;33.10
15144;BMP180;7672;50.834;6.286;2022-08-18T14:48:03;99449.38;;;33.16
15144;BMP180;7672;50.834;6.286;2022-08-18T14:50:38;99457.63;;;33.21
15144;BMP180;7672;50.834;6.286;2022-08-18T14:53:17;99456.13;;;33.27
15144;BMP180;7672;50.834;6.286;2022-08-18T14:55:50;99447.41;;;33.36
15144;BMP180;7672;50.834;6.286;2022-08-18T14:58:23;99449.47;;;33.42
15144;BMP180;7672;50.834;6.286;2022-08-18T15:00:57;99456.75;;;33.48
15144;BMP180;7672;50.834;6.286;2022-08-18T15:03:29;99447.91;;;33.49
15144;BMP180;7672;50.834;6.286;2022-08-18T15:05:59;99457.16;;;33.53
15144;BMP180;7672;50.834;6.286;2022-08-18T15:08:36;99453.59;;;33.54
15144;BMP180;7672;50.834;6.286;2022-08-18T15:11:04;99439.81;;;33.52
15144;BMP180;7672;50.834;6.286;2022-08-18T15:13:40;99443.13;;;33.45
15144;BMP180;7672;50.834;6.286;2022-08-18T15:16:09;99450.72;;;33.38
15144;BMP180;7672;50.834;6.286;2022-08-18T15:18:37;99456.22;;;33.35
15144;BMP180;7672;50.834;6.286;2022-08-18T15:21:04;99446.03;;;33.32
15144;BMP180;7672;50.834;6.286;2022-08-18T15:24:06;99450.75;;;33.75
15144;BMP180;7672;50.834;6.286;2022-08-18T15:26:54;99447.22;;;33.57
15144;BMP180;7672;50.834;6.286;2022-08-18T15:29:32;99446.41;;;33.47
15144;BMP180;7672;50.834;6.286;2022-08-18T15:32:00;99444.25;;;33.33
15144;BMP180;7672;50.834;6.286;2022-08-18T15:34:36;99447.59;;;33.16
15144;BMP180;7672;50.834;6.286;2022-08-18T15:37:18;99447.59;;;33.07
15144;BMP180;7672;50.834;6.286;2022-08-18T15:40:00;99457.09;;;32.98
15144;BMP180;7672;50.834;6.286;2022-08-18T15:42:29;99447.88;;;32.94
15144;BMP180;7672;50.834;6.286;2022-08-18T15:44:59;99448.28;;;32.99
15144;BMP180;7672;50.834;6.286;2022-08-18T15:47:39;99445.53;;;33.01
15144;BMP180;7672;50.834;6.286;2022-08-18T15:50:09;99449.69;;;33.03
15144;BMP180;7672;50.834;6.286;2022-08-18T15:52:58;99438.09;;;33.06
15144;BMP180;7672;50.834;6.286;2022-08-18T15:55:31;99430.50;;;33.03
15144;BMP180;7672;50.834;6.286;2022-08-18T15:58:03;99431.59;;;33.00
15144;BMP180;7672;50.834;6.286;2022-08-18T16:00:42;99431.88;;;32.97
15144;BMP180;7672;50.834;6.286;2022-08-18T16:03:13;99430.50;;;32.93
15144;BMP180;7672;50.834;6.286;2022-08-18T16:05:55;99419.47;;;32.90
15144;BMP180;7672;50.834;6.286;2022-08-18T16:08:24;99425.81;;;32.87
15144;BMP180;7672;50.834;6.286;2022-08-18T16:10:52;99431.50;;;32.83
15144;BMP180;7672;50.834;6.286;2022-08-18T16:13:21;99427.63;;;32.77
15144;BMP180;7672;50.834;6.286;2022-08-18T16:15:48;99428.19;;;32.71
15144;BMP180;7672;50.834;6.286;2022-08-18T16:18:18;99420.19;;;32.63
15144;BMP180;7672;50.834;6.286;2022-08-18T16:20:48;99430.38;;;32.57
15144;BMP180;7672;50.834;6.286;2022-08-18T16:23:22;99425.13;;;32.48
15144;BMP180;7672;50.834;6.286;2022-08-18T16:25:49;99419.19;;;32.36
15144;BMP180;7672;50.834;6.286;2022-08-18T16:28:16;99427.00;;;32.27
15144;BMP180;7672;50.834;6.286;2022-08-18T16:30:45;99419.97;;;32.18
15144;BMP180;7672;50.834;6.286;2022-08-18T16:33:12;99426.97;;;32.08
15144;BMP180;7672;50.834;6.286;2022-08-18T16:35:39;99422.66;;;31.97
15144;BMP180;7672;50.834;6.286;2022-08-18T16:38:10;99419.47;;;31.85
15144;BMP180;7672;50.834;6.286;2022-08-18T16:40:37;99420.13;;;31.77
15144;BMP180;7672;50.834;6.286;2022-08-18T16:43:06;99405.75;;;31.62
15144;BMP180;7672;50.834;6.286;2022-08-18T16:45:35;99414.50;;;31.52
15144;BMP180;7672;50.834;6.286;2022-08-18T16:48:03;99411.41;;;31.37
15144;BMP180;7672;50.834;6.286;2022-08-18T16:50:35;99419.44;;;31.25
15144;BMP180;7672;50.834;6.286;2022-08-18T16:53:04;99412.75;;;31.12
15144;BMP180;7672;50.834;6.286;2022-08-18T16:55:31;99412.94;;;30.99
15144;BMP180;7672;50.834;6.286;2022-08-18T16:57:58;99407.06;;;30.86
15144;BMP180;7672;50.834;6.286;2022-08-18T17:00:43;99407.38;;;30.72
15144;BMP180;7672;50.834;6.286;2022-08-18T17:03:28;99403.16;;;30.61
15144;BMP180;7672;50.834;6.286;2022-08-18T17:06:17;99403.06;;;30.51